sensor_id;sensor_type;location;lat;lon;timestamp;P1;durP1;ratioP1;P2;durP2;ratioP2
22429;SDS011;11382;48.086;11.632;2023-12-20T00:02:14;2.60;;;1.90;;
22429;SDS011;11382;48.086;11.632;2023-12-20T00:04:42;3.15;;;2.08;;
22429;SDS011;11382;48.086;11.632;2023-12-20T00:07:11;4.93;;;2.40;;
22429;SDS011;11382;48.086;11.632;2023-12-20T00:09:39;1.73;;;1.50;;
22429;SDS011;11382;48.086;11.632;2023-12-20T00:12:07;2.92;;;2.05;;
22429;SDS011;11382;48.086;11.632;2023-12-20T00:14:36;2.92;;;2.03;;
22429;SDS011;11382;48.086;11.632;2023-12-20T00:17:05;3.67;;;2.47;;
22429;SDS011;11382;48.086;11.632;2023-12-20T00:19:34;3.03;;;1.90;;
22429;SDS011;11382;48.086;11.632;2023-12-20T00:22:02;2.28;;;1.65;;
22429;SDS011;11382;48.086;11.632;2023-12-20T00:24:30;3.30;;;2.05;;
22429;SDS011;11382;48.086;11.632;2023-12-20T00:26:58;2.83;;;1.90;;
22429;SDS011;11382;48.086;11.632;2023-12-20T00:29:26;2.95;;;2.10;;
22429;SDS011;11382;48.086;11.632;2023-12-20T00:31:54;2.83;;;1.98;;
22429;SDS011;11382;48.086;11.632;2023-12-20T00:34:24;2.25;;;1.63;;
22429;SDS011;11382;48.086;11.632;2023-12-20T00:36:52;3.13;;;2.00;;
22429;SDS011;11382;48.086;11.632;2023-12-20T00:39:21;3.30;;;2.28;;
22429;SDS011;11382;48.086;11.632;2023-12-20T00:41:49;3.08;;;1.75;;
22429;SDS011;11382;48.086;11.632;2023-12-20T00:44:17;2.75;;;1.65;;
22429;SDS011;11382;48.086;11.632;2023-12-20T00:46:45;2.38;;;1.40;;
22429;SDS011;11382;48.086;11.632;2023-12-20T00:49:13;2.00;;;1.23;;
22429;SDS011;11382;48.086;11.632;2023-12-20T00:51:43;1.75;;;1.23;;
22429;SDS011;11382;48.086;11.632;2023-12-20T00:54:11;1.70;;;1.60;;
22429;SDS011;11382;48.086;11.632;2023-12-20T00:56:39;1.35;;;1.20;;
22429;SDS011;11382;48.086;11.632;2023-12-20T00:59:08;1.58;;;1.48;;
22429;SDS011;11382;48.086;11.632;2023-12-20T01:01:36;3.33;;;1.20;;
22429;SDS011;11382;48.086;11.632;2023-12-20T01:04:04;2.10;;;1.10;;
22429;SDS011;11382;48.086;11.632;2023-12-20T01:06:33;2.28;;;1.48;;
22429;SDS011;11382;48.086;11.632;2023-12-20T01:09:02;1.52;;;1.25;;
22429;SDS011;11382;48.086;11.632;2023-12-20T01:11:30;1.52;;;1.20;;
22429;SDS011;11382;48.086;11.632;2023-12-20T01:14:00;1.50;;;1.20;;
22429;SDS011;11382;48.086;11.632;2023-12-20T01:16:28;2.63;;;1.42;;
22429;SDS011;11382;48.086;11.632;2023-12-20T01:18:57;1.33;;;1.08;;
22429;SDS011;11382;48.086;11.632;2023-12-20T01:21:25;1.55;;;1.42;;
22429;SDS011;11382;48.086;11.632;2023-12-20T01:23:53;2.00;;;1.15;;
22429;SDS011;11382;48.086;11.632;2023-12-20T01:26:22;1.65;;;1.30;;
22429;SDS011;11382;48.086;11.632;2023-12-20T01:28:51;2.97;;;1.20;;
22429;SDS011;11382;48.086;11.632;2023-12-20T01:31:19;1.52;;;1.10;;
22429;SDS011;11382;48.086;11.632;2023-12-20T01:33:47;1.67;;;1.23;;
22429;SDS011;11382;48.086;11.632;2023-12-20T01:36:15;1.98;;;1.40;;
22429;SDS011;11382;48.086;11.632;2023-12-20T01:38:43;1.88;;;1.20;;
22429;SDS011;11382;48.086;11.632;2023-12-20T01:41:11;2.05;;;1.35;;
22429;SDS011;11382;48.086;11.632;2023-12-20T01:43:40;2.75;;;1.50;;
22429;SDS011;11382;48.086;11.632;2023-12-20T01:46:17;2.53;;;1.27;;
22429;SDS011;11382;48.086;11.632;2023-12-20T01:48:46;2.15;;;1.30;;
22429;SDS011;11382;48.086;11.632;2023-12-20T01:51:15;1.42;;;1.20;;
22429;SDS011;11382;48.086;11.632;2023-12-20T01:53:43;1.70;;;1.17;;
22429;SDS011;11382;48.086;11.632;2023-12-20T01:56:11;1.40;;;1.13;;
22429;SDS011;11382;48.086;11.632;2023-12-20T01:58:43;1.63;;;1.20;;
22429;SDS011;11382;48.086;11.632;2023-12-20T02:01:12;1.38;;;1.27;;
22429;SDS011;11382;48.086;11.632;2023-12-20T02:03:41;1.55;;;1.00;;
22429;SDS011;11382;48.086;11.632;2023-12-20T02:06:10;1.70;;;1.10;;
22429;SDS011;11382;48.086;11.632;2023-12-20T02:08:38;1.20;;;1.10;;
22429;SDS011;11382;48.086;11.632;2023-12-20T02:11:06;1.20;;;0.93;;
22429;SDS011;11382;48.086;11.632;2023-12-20T02:13:35;1.30;;;0.80;;
22429;SDS011;11382;48.086;11.632;2023-12-20T02:16:05;1.35;;;0.90;;
22429;SDS011;11382;48.086;11.632;2023-12-20T02:18:34;0.88;;;0.70;;
22429;SDS011;11382;48.086;11.632;2023-12-20T02:21:04;1.58;;;0.90;;
22429;SDS011;11382;48.086;11.632;2023-12-20T02:23:34;1.25;;;0.88;;
22429;SDS011;11382;48.086;11.632;2023-12-20T02:26:02;1.70;;;0.80;;
22429;SDS011;11382;48.086;11.632;2023-12-20T02:28:32;1.15;;;0.90;;
22429;SDS011;11382;48.086;11.632;2023-12-20T02:31:01;1.05;;;0.90;;
22429;SDS011;11382;48.086;11.632;2023-12-20T02:33:29;1.45;;;1.00;;
22429;SDS011;11382;48.086;11.632;2023-12-20T02:35:57;1.40;;;0.85;;
22429;SDS011;11382;48.086;11.632;2023-12-20T02:38:25;0.90;;;0.80;;
22429;SDS011;11382;48.086;11.632;2023-12-20T02:40:55;1.13;;;0.90;;
22429;SDS011;11382;48.086;11.632;2023-12-20T02:43:23;1.00;;;0.90;;
22429;SDS011;11382;48.086;11.632;2023-12-20T02:45:51;0.77;;;0.75;;
22429;SDS011;11382;48.086;11.632;2023-12-20T02:48:19;1.27;;;0.93;;
22429;SDS011;11382;48.086;11.632;2023-12-20T02:50:47;1.85;;;1.13;;
22429;SDS011;11382;48.086;11.632;2023-12-20T02:53:16;1.33;;;0.82;;
22429;SDS011;11382;48.086;11.632;2023-12-20T02:55:44;2.70;;;1.65;;
22429;SDS011;11382;48.086;11.632;2023-12-20T02:58:14;0.88;;;0.55;;
22429;SDS011;11382;48.086;11.632;2023-12-20T03:00:44;2.88;;;1.17;;
22429;SDS011;11382;48.086;11.632;2023-12-20T03:03:12;1.77;;;0.75;;
22429;SDS011;11382;48.086;11.632;2023-12-20T03:05:40;1.08;;;0.90;;
22429;SDS011;11382;48.086;11.632;2023-12-20T03:08:08;1.10;;;0.70;;
22429;SDS011;11382;48.086;11.632;2023-12-20T03:10:37;1.73;;;0.93;;
22429;SDS011;11382;48.086;11.632;2023-12-20T03:13:05;1.40;;;0.88;;
22429;SDS011;11382;48.086;11.632;2023-12-20T03:15:34;1.08;;;0.93;;
22429;SDS011;11382;48.086;11.632;2023-12-20T03:18:03;2.10;;;1.15;;
22429;SDS011;11382;48.086;11.632;2023-12-20T03:20:32;1.27;;;0.88;;
22429;SDS011;11382;48.086;11.632;2023-12-20T03:23:00;1.15;;;0.85;;
22429;SDS011;11382;48.086;11.632;2023-12-20T03:25:28;3.17;;;1.20;;
22429;SDS011;11382;48.086;11.632;2023-12-20T03:27:57;1.67;;;1.10;;
22429;SDS011;11382;48.086;11.632;2023-12-20T03:30:25;1.42;;;1.00;;
22429;SDS011;11382;48.086;11.632;2023-12-20T03:32:54;1.23;;;0.85;;
22429;SDS011;11382;48.086;11.632;2023-12-20T03:35:22;1.67;;;1.20;;
22429;SDS011;11382;48.086;11.632;2023-12-20T03:37:50;1.38;;;1.17;;
22429;SDS011;11382;48.086;11.632;2023-12-20T03:40:18;1.50;;;0.90;;
22429;SDS011;11382;48.086;11.632;2023-12-20T03:42:46;3.03;;;1.23;;
22429;SDS011;11382;48.086;11.632;2023-12-20T03:45:14;2.33;;;1.13;;
22429;SDS011;11382;48.086;11.632;2023-12-20T03:47:43;1.52;;;1.05;;
22429;SDS011;11382;48.086;11.632;2023-12-20T03:50:13;1.58;;;0.90;;
22429;SDS011;11382;48.086;11.632;2023-12-20T03:52:41;2.58;;;1.23;;
22429;SDS011;11382;48.086;11.632;2023-12-20T03:55:09;1.52;;;0.95;;
22429;SDS011;11382;48.086;11.632;2023-12-20T03:57:37;1.42;;;1.02;;
22429;SDS011;11382;48.086;11.632;2023-12-20T04:00:06;2.72;;;1.05;;
22429;SDS011;11382;48.086;11.632;2023-12-20T04:02:40;1.23;;;0.90;;
22429;SDS011;11382;48.086;11.632;2023-12-20T04:05:09;0.75;;;0.70;;
22429;SDS011;11382;48.086;11.632;2023-12-20T04:07:39;1.10;;;0.70;;
22429;SDS011;11382;48.086;11.632;2023-12-20T04:10:07;0.75;;;0.60;;
22429;SDS011;11382;48.086;11.632;2023-12-20T04:12:36;0.70;;;0.60;;
22429;SDS011;11382;48.086;11.632;2023-12-20T04:15:04;0.65;;;0.50;;
22429;SDS011;11382;48.086;11.632;2023-12-20T04:17:36;0.65;;;0.55;;
22429;SDS011;11382;48.086;11.632;2023-12-20T04:20:04;0.57;;;0.50;;
22429;SDS011;11382;48.086;11.632;2023-12-20T04:22:33;0.75;;;0.60;;
22429;SDS011;11382;48.086;11.632;2023-12-20T04:25:05;0.88;;;0.50;;
22429;SDS011;11382;48.086;11.632;2023-12-20T04:27:34;0.60;;;0.60;;
22429;SDS011;11382;48.086;11.632;2023-12-20T04:30:03;0.70;;;0.60;;
22429;SDS011;11382;48.086;11.632;2023-12-20T04:32:32;0.57;;;0.57;;
22429;SDS011;11382;48.086;11.632;2023-12-20T04:35:00;0.95;;;0.77;;
22429;SDS011;11382;48.086;11.632;2023-12-20T04:37:28;0.82;;;0.77;;
22429;SDS011;11382;48.086;11.632;2023-12-20T04:39:56;0.73;;;0.60;;
22429;SDS011;11382;48.086;11.632;2023-12-20T04:42:26;0.82;;;0.47;;
22429;SDS011;11382;48.086;11.632;2023-12-20T04:44:54;1.27;;;0.80;;
22429;SDS011;11382;48.086;11.632;2023-12-20T04:47:22;2.20;;;0.60;;
22429;SDS011;11382;48.086;11.632;2023-12-20T04:49:50;1.52;;;0.85;;
22429;SDS011;11382;48.086;11.632;2023-12-20T04:52:19;1.20;;;0.88;;
22429;SDS011;11382;48.086;11.632;2023-12-20T04:54:47;0.82;;;0.82;;
22429;SDS011;11382;48.086;11.632;2023-12-20T04:57:15;1.10;;;0.80;;
22429;SDS011;11382;48.086;11.632;2023-12-20T04:59:44;1.77;;;1.02;;
22429;SDS011;11382;48.086;11.632;2023-12-20T05:02:12;1.23;;;0.88;;
22429;SDS011;11382;48.086;11.632;2023-12-20T05:04:39;2.03;;;1.05;;
22429;SDS011;11382;48.086;11.632;2023-12-20T05:07:08;1.80;;;1.05;;
22429;SDS011;11382;48.086;11.632;2023-12-20T05:09:36;1.60;;;1.40;;
22429;SDS011;11382;48.086;11.632;2023-12-20T05:12:04;2.60;;;1.30;;
22429;SDS011;11382;48.086;11.632;2023-12-20T05:14:33;1.92;;;1.50;;
22429;SDS011;11382;48.086;11.632;2023-12-20T05:17:03;2.35;;;1.55;;
22429;SDS011;11382;48.086;11.632;2023-12-20T05:19:31;1.85;;;1.48;;
22429;SDS011;11382;48.086;11.632;2023-12-20T05:22:02;1.20;;;1.08;;
22429;SDS011;11382;48.086;11.632;2023-12-20T05:24:30;3.58;;;1.58;;
22429;SDS011;11382;48.086;11.632;2023-12-20T05:26:58;2.20;;;1.20;;
22429;SDS011;11382;48.086;11.632;2023-12-20T05:29:26;1.80;;;0.98;;
22429;SDS011;11382;48.086;11.632;2023-12-20T05:31:54;1.55;;;1.20;;
22429;SDS011;11382;48.086;11.632;2023-12-20T05:34:24;1.40;;;1.10;;
22429;SDS011;11382;48.086;11.632;2023-12-20T05:36:52;3.00;;;1.17;;
22429;SDS011;11382;48.086;11.632;2023-12-20T05:39:22;1.50;;;1.20;;
22429;SDS011;11382;48.086;11.632;2023-12-20T05:41:50;1.75;;;1.33;;
22429;SDS011;11382;48.086;11.632;2023-12-20T05:44:18;1.73;;;1.33;;
22429;SDS011;11382;48.086;11.632;2023-12-20T05:46:48;4.28;;;1.55;;
22429;SDS011;11382;48.086;11.632;2023-12-20T05:49:16;2.78;;;1.40;;
22429;SDS011;11382;48.086;11.632;2023-12-20T05:51:45;3.55;;;1.83;;
22429;SDS011;11382;48.086;11.632;2023-12-20T05:54:14;2.33;;;1.30;;
22429;SDS011;11382;48.086;11.632;2023-12-20T05:56:42;2.70;;;1.50;;
22429;SDS011;11382;48.086;11.632;2023-12-20T05:59:12;1.80;;;1.50;;
22429;SDS011;11382;48.086;11.632;2023-12-20T06:01:40;1.42;;;1.15;;
22429;SDS011;11382;48.086;11.632;2023-12-20T06:04:08;2.75;;;1.40;;
22429;SDS011;11382;48.086;11.632;2023-12-20T06:06:40;2.35;;;1.20;;
22429;SDS011;11382;48.086;11.632;2023-12-20T06:09:10;2.13;;;1.35;;
22429;SDS011;11382;48.086;11.632;2023-12-20T06:11:40;1.50;;;1.38;;
22429;SDS011;11382;48.086;11.632;2023-12-20T06:14:09;2.20;;;1.50;;
22429;SDS011;11382;48.086;11.632;2023-12-20T06:16:37;2.58;;;1.20;;
22429;SDS011;11382;48.086;11.632;2023-12-20T06:19:05;2.88;;;1.30;;
22429;SDS011;11382;48.086;11.632;2023-12-20T06:21:33;2.25;;;1.35;;
22429;SDS011;11382;48.086;11.632;2023-12-20T06:24:01;1.98;;;1.30;;
22429;SDS011;11382;48.086;11.632;2023-12-20T06:26:30;3.22;;;1.75;;
22429;SDS011;11382;48.086;11.632;2023-12-20T06:28:58;1.77;;;1.45;;
22429;SDS011;11382;48.086;11.632;2023-12-20T06:31:26;2.17;;;1.48;;
22429;SDS011;11382;48.086;11.632;2023-12-20T06:33:55;1.70;;;1.17;;
22429;SDS011;11382;48.086;11.632;2023-12-20T06:36:30;2.47;;;1.40;;
22429;SDS011;11382;48.086;11.632;2023-12-20T06:39:00;2.08;;;1.40;;
22429;SDS011;11382;48.086;11.632;2023-12-20T06:41:31;2.53;;;1.45;;
22429;SDS011;11382;48.086;11.632;2023-12-20T06:43:59;1.85;;;1.30;;
22429;SDS011;11382;48.086;11.632;2023-12-20T06:46:27;2.53;;;1.40;;
22429;SDS011;11382;48.086;11.632;2023-12-20T06:48:56;2.53;;;1.33;;
22429;SDS011;11382;48.086;11.632;2023-12-20T06:51:24;1.10;;;1.00;;
22429;SDS011;11382;48.086;11.632;2023-12-20T06:53:52;3.67;;;1.30;;
22429;SDS011;11382;48.086;11.632;2023-12-20T06:56:20;1.30;;;0.90;;
22429;SDS011;11382;48.086;11.632;2023-12-20T06:58:51;2.08;;;1.23;;
22429;SDS011;11382;48.086;11.632;2023-12-20T07:01:19;1.30;;;1.10;;
22429;SDS011;11382;48.086;11.632;2023-12-20T07:03:48;1.50;;;0.90;;
22429;SDS011;11382;48.086;11.632;2023-12-20T07:06:16;0.80;;;0.60;;
22429;SDS011;11382;48.086;11.632;2023-12-20T07:08:44;1.13;;;0.80;;
22429;SDS011;11382;48.086;11.632;2023-12-20T07:11:12;0.60;;;0.60;;
22429;SDS011;11382;48.086;11.632;2023-12-20T07:13:41;1.10;;;0.70;;
22429;SDS011;11382;48.086;11.632;2023-12-20T07:16:10;1.38;;;0.75;;
22429;SDS011;11382;48.086;11.632;2023-12-20T07:18:41;2.80;;;0.90;;
22429;SDS011;11382;48.086;11.632;2023-12-20T07:21:09;0.63;;;0.60;;
22429;SDS011;11382;48.086;11.632;2023-12-20T07:23:38;1.17;;;0.73;;
22429;SDS011;11382;48.086;11.632;2023-12-20T07:26:06;1.05;;;0.80;;
22429;SDS011;11382;48.086;11.632;2023-12-20T07:28:35;2.85;;;0.63;;
22429;SDS011;11382;48.086;11.632;2023-12-20T07:31:03;1.45;;;0.85;;
22429;SDS011;11382;48.086;11.632;2023-12-20T07:33:33;1.30;;;0.80;;
22429;SDS011;11382;48.086;11.632;2023-12-20T07:36:05;0.88;;;0.80;;
22429;SDS011;11382;48.086;11.632;2023-12-20T07:38:34;0.82;;;0.80;;
22429;SDS011;11382;48.086;11.632;2023-12-20T07:41:02;0.93;;;0.70;;
22429;SDS011;11382;48.086;11.632;2023-12-20T07:43:31;1.08;;;0.80;;
22429;SDS011;11382;48.086;11.632;2023-12-20T07:46:03;1.13;;;0.85;;
22429;SDS011;11382;48.086;11.632;2023-12-20T07:48:34;0.90;;;0.80;;
22429;SDS011;11382;48.086;11.632;2023-12-20T07:51:03;1.27;;;0.82;;
22429;SDS011;11382;48.086;11.632;2023-12-20T07:53:33;3.53;;;0.80;;
22429;SDS011;11382;48.086;11.632;2023-12-20T07:56:13;1.40;;;0.88;;
22429;SDS011;11382;48.086;11.632;2023-12-20T07:58:42;1.35;;;0.80;;
22429;SDS011;11382;48.086;11.632;2023-12-20T08:01:18;1.20;;;0.80;;
22429;SDS011;11382;48.086;11.632;2023-12-20T08:03:49;1.23;;;0.65;;
22429;SDS011;11382;48.086;11.632;2023-12-20T08:06:19;0.68;;;0.55;;
22429;SDS011;11382;48.086;11.632;2023-12-20T08:08:47;1.83;;;0.80;;
22429;SDS011;11382;48.086;11.632;2023-12-20T08:11:27;1.73;;;1.17;;
22429;SDS011;11382;48.086;11.632;2023-12-20T08:13:55;0.93;;;0.60;;
22429;SDS011;11382;48.086;11.632;2023-12-20T08:16:24;0.90;;;0.68;;
22429;SDS011;11382;48.086;11.632;2023-12-20T08:18:54;0.70;;;0.70;;
22429;SDS011;11382;48.086;11.632;2023-12-20T08:21:22;0.60;;;0.60;;
22429;SDS011;11382;48.086;11.632;2023-12-20T08:23:51;0.68;;;0.50;;
22429;SDS011;11382;48.086;11.632;2023-12-20T08:26:19;0.73;;;0.50;;
22429;SDS011;11382;48.086;11.632;2023-12-20T08:28:49;0.60;;;0.60;;
22429;SDS011;11382;48.086;11.632;2023-12-20T08:31:18;0.82;;;0.50;;
22429;SDS011;11382;48.086;11.632;2023-12-20T08:33:47;0.95;;;0.70;;
22429;SDS011;11382;48.086;11.632;2023-12-20T08:36:18;0.90;;;0.70;;
22429;SDS011;11382;48.086;11.632;2023-12-20T08:38:47;0.70;;;0.65;;
22429;SDS011;11382;48.086;11.632;2023-12-20T08:41:16;0.60;;;0.60;;
22429;SDS011;11382;48.086;11.632;2023-12-20T08:43:44;0.90;;;0.73;;
22429;SDS011;11382;48.086;11.632;2023-12-20T08:46:13;0.70;;;0.60;;
22429;SDS011;11382;48.086;11.632;2023-12-20T08:48:42;1.23;;;0.77;;
22429;SDS011;11382;48.086;11.632;2023-12-20T08:51:10;2.05;;;0.70;;
22429;SDS011;11382;48.086;11.632;2023-12-20T08:53:40;1.27;;;0.60;;
22429;SDS011;11382;48.086;11.632;2023-12-20T08:56:11;0.50;;;0.50;;
22429;SDS011;11382;48.086;11.632;2023-12-20T08:58:39;0.73;;;0.63;;
22429;SDS011;11382;48.086;11.632;2023-12-20T09:01:09;0.95;;;0.63;;
22429;SDS011;11382;48.086;11.632;2023-12-20T09:03:37;0.95;;;0.60;;
22429;SDS011;11382;48.086;11.632;2023-12-20T09:06:06;0.60;;;0.60;;
22429;SDS011;11382;48.086;11.632;2023-12-20T09:08:35;0.75;;;0.52;;
22429;SDS011;11382;48.086;11.632;2023-12-20T09:11:05;1.75;;;0.55;;
22429;SDS011;11382;48.086;11.632;2023-12-20T09:13:34;0.85;;;0.52;;
22429;SDS011;11382;48.086;11.632;2023-12-20T09:16:02;1.38;;;0.80;;
22429;SDS011;11382;48.086;11.632;2023-12-20T09:18:31;0.60;;;0.60;;
22429;SDS011;11382;48.086;11.632;2023-12-20T09:20:59;0.50;;;0.40;;
22429;SDS011;11382;48.086;11.632;2023-12-20T09:23:28;2.25;;;0.60;;
22429;SDS011;11382;48.086;11.632;2023-12-20T09:25:56;0.50;;;0.50;;
22429;SDS011;11382;48.086;11.632;2023-12-20T09:28:25;0.57;;;0.47;;
22429;SDS011;11382;48.086;11.632;2023-12-20T09:30:54;0.45;;;0.45;;
22429;SDS011;11382;48.086;11.632;2023-12-20T09:33:22;0.70;;;0.50;;
22429;SDS011;11382;48.086;11.632;2023-12-20T09:35:51;0.55;;;0.55;;
22429;SDS011;11382;48.086;11.632;2023-12-20T09:38:20;0.68;;;0.50;;
22429;SDS011;11382;48.086;11.632;2023-12-20T09:40:49;0.65;;;0.60;;
22429;SDS011;11382;48.086;11.632;2023-12-20T09:43:18;0.30;;;0.30;;
22429;SDS011;11382;48.086;11.632;2023-12-20T09:45:49;1.52;;;0.70;;
22429;SDS011;11382;48.086;11.632;2023-12-20T09:48:20;0.60;;;0.50;;
22429;SDS011;11382;48.086;11.632;2023-12-20T09:50:49;0.60;;;0.55;;
22429;SDS011;11382;48.086;11.632;2023-12-20T09:53:19;0.40;;;0.40;;
22429;SDS011;11382;48.086;11.632;2023-12-20T09:55:56;0.77;;;0.70;;
22429;SDS011;11382;48.086;11.632;2023-12-20T09:58:29;1.48;;;0.60;;
22429;SDS011;11382;48.086;11.632;2023-12-20T10:00:58;0.75;;;0.75;;
22429;SDS011;11382;48.086;11.632;2023-12-20T10:03:28;1.88;;;0.70;;
22429;SDS011;11382;48.086;11.632;2023-12-20T10:05:58;2.92;;;0.77;;
22429;SDS011;11382;48.086;11.632;2023-12-20T10:08:28;0.57;;;0.50;;
22429;SDS011;11382;48.086;11.632;2023-12-20T10:10:56;0.60;;;0.60;;
22429;SDS011;11382;48.086;11.632;2023-12-20T10:13:29;0.50;;;0.50;;
22429;SDS011;11382;48.086;11.632;2023-12-20T10:15:59;0.88;;;0.73;;
22429;SDS011;11382;48.086;11.632;2023-12-20T10:18:28;0.90;;;0.68;;
22429;SDS011;11382;48.086;11.632;2023-12-20T10:21:05;0.68;;;0.50;;
22429;SDS011;11382;48.086;11.632;2023-12-20T10:23:37;0.75;;;0.52;;
22429;SDS011;11382;48.086;11.632;2023-12-20T10:26:06;0.60;;;0.60;;
22429;SDS011;11382;48.086;11.632;2023-12-20T10:28:36;0.65;;;0.65;;
22429;SDS011;11382;48.086;11.632;2023-12-20T10:31:05;0.80;;;0.70;;
22429;SDS011;11382;48.086;11.632;2023-12-20T10:33:34;0.68;;;0.40;;
22429;SDS011;11382;48.086;11.632;2023-12-20T10:36:02;0.70;;;0.60;;
22429;SDS011;11382;48.086;11.632;2023-12-20T10:38:31;0.60;;;0.60;;
22429;SDS011;11382;48.086;11.632;2023-12-20T10:40:59;0.85;;;0.70;;
22429;SDS011;11382;48.086;11.632;2023-12-20T10:43:31;1.20;;;0.70;;
22429;SDS011;11382;48.086;11.632;2023-12-20T10:46:01;1.20;;;0.60;;
22429;SDS011;11382;48.086;11.632;2023-12-20T10:48:32;0.57;;;0.55;;
22429;SDS011;11382;48.086;11.632;2023-12-20T10:51:02;1.83;;;0.85;;
22429;SDS011;11382;48.086;11.632;2023-12-20T10:53:32;0.82;;;0.60;;
22429;SDS011;11382;48.086;11.632;2023-12-20T10:56:03;0.45;;;0.45;;
22429;SDS011;11382;48.086;11.632;2023-12-20T10:58:32;0.70;;;0.65;;
22429;SDS011;11382;48.086;11.632;2023-12-20T11:01:02;0.68;;;0.52;;
22429;SDS011;11382;48.086;11.632;2023-12-20T11:03:34;1.02;;;0.70;;
22429;SDS011;11382;48.086;11.632;2023-12-20T11:06:06;0.57;;;0.57;;
22429;SDS011;11382;48.086;11.632;2023-12-20T11:08:39;0.43;;;0.43;;
22429;SDS011;11382;48.086;11.632;2023-12-20T11:11:14;0.75;;;0.75;;
22429;SDS011;11382;48.086;11.632;2023-12-20T11:13:54;0.75;;;0.75;;
22429;SDS011;11382;48.086;11.632;2023-12-20T11:16:29;0.80;;;0.70;;
22429;SDS011;11382;48.086;11.632;2023-12-20T11:19:15;1.00;;;0.90;;
22429;SDS011;11382;48.086;11.632;2023-12-20T11:21:45;0.98;;;0.73;;
22429;SDS011;11382;48.086;11.632;2023-12-20T11:24:15;0.85;;;0.70;;
22429;SDS011;11382;48.086;11.632;2023-12-20T11:26:46;1.00;;;0.70;;
22429;SDS011;11382;48.086;11.632;2023-12-20T11:32:02;1.13;;;0.98;;
22429;SDS011;11382;48.086;11.632;2023-12-20T11:34:52;2.72;;;0.90;;
22429;SDS011;11382;48.086;11.632;2023-12-20T11:37:21;1.30;;;0.85;;
22429;SDS011;11382;48.086;11.632;2023-12-20T11:39:55;2.47;;;1.02;;
22429;SDS011;11382;48.086;11.632;2023-12-20T11:42:28;1.23;;;1.10;;
22429;SDS011;11382;48.086;11.632;2023-12-20T11:45:01;1.20;;;1.10;;
22429;SDS011;11382;48.086;11.632;2023-12-20T11:47:29;1.55;;;1.15;;
22429;SDS011;11382;48.086;11.632;2023-12-20T11:50:00;4.15;;;1.35;;
22429;SDS011;11382;48.086;11.632;2023-12-20T11:52:30;1.33;;;1.13;;
22429;SDS011;11382;48.086;11.632;2023-12-20T11:54:59;3.22;;;1.00;;
22429;SDS011;11382;48.086;11.632;2023-12-20T11:57:27;1.25;;;1.02;;
22429;SDS011;11382;48.086;11.632;2023-12-20T11:59:55;0.95;;;0.88;;
22429;SDS011;11382;48.086;11.632;2023-12-20T12:02:24;1.38;;;0.90;;
22429;SDS011;11382;48.086;11.632;2023-12-20T12:04:52;1.20;;;0.80;;
22429;SDS011;11382;48.086;11.632;2023-12-20T12:07:21;1.27;;;0.75;;
22429;SDS011;11382;48.086;11.632;2023-12-20T12:09:50;1.10;;;0.88;;
22429;SDS011;11382;48.086;11.632;2023-12-20T12:12:18;1.10;;;0.98;;
22429;SDS011;11382;48.086;11.632;2023-12-20T12:14:47;1.27;;;0.80;;
22429;SDS011;11382;48.086;11.632;2023-12-20T12:17:16;1.10;;;0.90;;
22429;SDS011;11382;48.086;11.632;2023-12-20T12:19:44;1.42;;;0.88;;
22429;SDS011;11382;48.086;11.632;2023-12-20T12:22:13;0.52;;;0.52;;
22429;SDS011;11382;48.086;11.632;2023-12-20T12:24:45;1.02;;;0.77;;
22429;SDS011;11382;48.086;11.632;2023-12-20T12:27:15;1.05;;;0.70;;
22429;SDS011;11382;48.086;11.632;2023-12-20T12:30:00;0.70;;;0.70;;
22429;SDS011;11382;48.086;11.632;2023-12-20T12:32:29;1.27;;;0.68;;
22429;SDS011;11382;48.086;11.632;2023-12-20T12:34:57;0.70;;;0.70;;
22429;SDS011;11382;48.086;11.632;2023-12-20T12:37:25;2.03;;;1.00;;
22429;SDS011;11382;48.086;11.632;2023-12-20T12:39:55;0.85;;;0.70;;
22429;SDS011;11382;48.086;11.632;2023-12-20T12:42:24;0.70;;;0.70;;
22429;SDS011;11382;48.086;11.632;2023-12-20T12:44:55;0.70;;;0.70;;
22429;SDS011;11382;48.086;11.632;2023-12-20T12:47:23;6.55;;;1.00;;
22429;SDS011;11382;48.086;11.632;2023-12-20T12:49:51;1.10;;;0.80;;
22429;SDS011;11382;48.086;11.632;2023-12-20T12:52:20;0.77;;;0.77;;
22429;SDS011;11382;48.086;11.632;2023-12-20T12:54:49;1.20;;;1.02;;
22429;SDS011;11382;48.086;11.632;2023-12-20T12:57:18;1.95;;;0.80;;
22429;SDS011;11382;48.086;11.632;2023-12-20T12:59:46;1.60;;;0.73;;
22429;SDS011;11382;48.086;11.632;2023-12-20T13:02:14;0.95;;;0.77;;
22429;SDS011;11382;48.086;11.632;2023-12-20T13:04:42;0.98;;;0.80;;
22429;SDS011;11382;48.086;11.632;2023-12-20T13:07:11;1.90;;;0.98;;
22429;SDS011;11382;48.086;11.632;2023-12-20T13:09:40;1.20;;;1.00;;
22429;SDS011;11382;48.086;11.632;2023-12-20T13:12:08;1.38;;;1.08;;
22429;SDS011;11382;48.086;11.632;2023-12-20T13:14:37;2.33;;;1.30;;
22429;SDS011;11382;48.086;11.632;2023-12-20T13:17:07;1.63;;;1.20;;
22429;SDS011;11382;48.086;11.632;2023-12-20T13:19:35;1.05;;;0.80;;
22429;SDS011;11382;48.086;11.632;2023-12-20T13:22:03;1.15;;;0.90;;
22429;SDS011;11382;48.086;11.632;2023-12-20T13:24:31;1.40;;;1.00;;
22429;SDS011;11382;48.086;11.632;2023-12-20T13:26:59;1.15;;;1.05;;
22429;SDS011;11382;48.086;11.632;2023-12-20T13:29:27;1.58;;;1.45;;
22429;SDS011;11382;48.086;11.632;2023-12-20T13:31:57;1.98;;;1.55;;
22429;SDS011;11382;48.086;11.632;2023-12-20T13:34:25;1.65;;;1.45;;
22429;SDS011;11382;48.086;11.632;2023-12-20T13:36:53;2.50;;;1.45;;
22429;SDS011;11382;48.086;11.632;2023-12-20T13:39:23;2.65;;;1.42;;
22429;SDS011;11382;48.086;11.632;2023-12-20T13:41:51;3.00;;;1.55;;
22429;SDS011;11382;48.086;11.632;2023-12-20T13:44:19;3.45;;;1.55;;
22429;SDS011;11382;48.086;11.632;2023-12-20T13:46:47;2.30;;;1.75;;
22429;SDS011;11382;48.086;11.632;2023-12-20T13:49:17;2.33;;;1.85;;
22429;SDS011;11382;48.086;11.632;2023-12-20T13:51:46;2.15;;;1.45;;
22429;SDS011;11382;48.086;11.632;2023-12-20T13:54:14;3.42;;;1.60;;
22429;SDS011;11382;48.086;11.632;2023-12-20T13:56:43;2.72;;;1.77;;
22429;SDS011;11382;48.086;11.632;2023-12-20T13:59:31;4.10;;;2.15;;
22429;SDS011;11382;48.086;11.632;2023-12-20T14:01:59;6.38;;;2.45;;
22429;SDS011;11382;48.086;11.632;2023-12-20T14:04:29;3.20;;;1.67;;
22429;SDS011;11382;48.086;11.632;2023-12-20T14:07:08;2.90;;;1.98;;
22429;SDS011;11382;48.086;11.632;2023-12-20T14:09:38;5.13;;;1.92;;
22429;SDS011;11382;48.086;11.632;2023-12-20T14:12:11;3.33;;;2.10;;
22429;SDS011;11382;48.086;11.632;2023-12-20T14:14:39;3.05;;;2.33;;
22429;SDS011;11382;48.086;11.632;2023-12-20T14:17:07;4.55;;;2.30;;
22429;SDS011;11382;48.086;11.632;2023-12-20T14:19:37;6.50;;;2.25;;
22429;SDS011;11382;48.086;11.632;2023-12-20T14:22:06;5.07;;;1.85;;
22429;SDS011;11382;48.086;11.632;2023-12-20T14:24:34;4.45;;;2.28;;
22429;SDS011;11382;48.086;11.632;2023-12-20T14:27:02;2.47;;;1.83;;
22429;SDS011;11382;48.086;11.632;2023-12-20T14:29:31;8.35;;;2.63;;
22429;SDS011;11382;48.086;11.632;2023-12-20T14:32:01;5.57;;;2.25;;
22429;SDS011;11382;48.086;11.632;2023-12-20T14:34:32;7.30;;;2.30;;
22429;SDS011;11382;48.086;11.632;2023-12-20T14:37:02;3.78;;;1.92;;
22429;SDS011;11382;48.086;11.632;2023-12-20T14:39:33;2.88;;;1.75;;
22429;SDS011;11382;48.086;11.632;2023-12-20T14:42:05;5.22;;;2.42;;
22429;SDS011;11382;48.086;11.632;2023-12-20T14:44:37;5.10;;;2.25;;
22429;SDS011;11382;48.086;11.632;2023-12-20T14:47:05;4.85;;;2.13;;
22429;SDS011;11382;48.086;11.632;2023-12-20T14:49:35;3.88;;;2.05;;